Portland, Oregon
Traffic Map
Current Weather Conditions
Portland, Oregon
Overcast Light Rain
Overcast
42°
Feels Like: 42°
Wind Chill: 42° Ceiling: 600
Heat Index: 42° Visibility: 4mi
Dew Point: 41° Wind: 0mph
Humidity: 96% Direction: ° ()
Pressure: 29.69in Gusts: 0mph
Raw Report DataKPDX 211253Z 00000KT 4SM -RA BR BKN006 OVC036 06/05 A2969 RMK AO2 SLP053 P0004 T00560050 $
Traffic Incident Summary
Active as of:
Severity:
Category:
InformationThere was an issue retrieving the traffic information for this location. Please try a different location or try again shortly.
Advertisements
Track Severe Weather on mobile